sensor_id;sensor_type;location;lat;lon;timestamp;temperature;humidity
33827;DHT22;20128;45.582;5.298;2023-04-03T00:01:12;10.20;91.30
33827;DHT22;20128;45.582;5.298;2023-04-03T00:03:38;10.20;91.30
33827;DHT22;20128;45.582;5.298;2023-04-03T00:06:04;10.20;91.30
33827;DHT22;20128;45.582;5.298;2023-04-03T00:08:32;10.20;91.20
33827;DHT22;20128;45.582;5.298;2023-04-03T00:10:58;10.20;91.30
33827;DHT22;20128;45.582;5.298;2023-04-03T00:13:23;10.20;91.40
33827;DHT22;20128;45.582;5.298;2023-04-03T00:15:51;10.20;91.50
33827;DHT22;20128;45.582;5.298;2023-04-03T00:18:17;10.20;91.40
33827;DHT22;20128;45.582;5.298;2023-04-03T00:20:42;10.20;91.30
33827;DHT22;20128;45.582;5.298;2023-04-03T00:23:08;10.20;91.40
33827;DHT22;20128;45.582;5.298;2023-04-03T00:25:34;10.10;91.40
33827;DHT22;20128;45.582;5.298;2023-04-03T00:28:00;10.10;91.40
33827;DHT22;20128;45.582;5.298;2023-04-03T00:30:26;10.10;91.50
33827;DHT22;20128;45.582;5.298;2023-04-03T00:32:52;10.10;91.60
33827;DHT22;20128;45.582;5.298;2023-04-03T00:35:19;10.10;91.50
33827;DHT22;20128;45.582;5.298;2023-04-03T00:37:45;10.10;91.50
33827;DHT22;20128;45.582;5.298;2023-04-03T00:40:12;10.10;91.50
33827;DHT22;20128;45.582;5.298;2023-04-03T00:42:40;10.10;91.50
33827;DHT22;20128;45.582;5.298;2023-04-03T00:47:32;10.20;91.40
33827;DHT22;20128;45.582;5.298;2023-04-03T00:49:57;10.20;91.30
33827;DHT22;20128;45.582;5.298;2023-04-03T00:52:27;10.10;91.30
33827;DHT22;20128;45.582;5.298;2023-04-03T00:54:58;10.10;91.20
33827;DHT22;20128;45.582;5.298;2023-04-03T00:57:26;10.10;91.20
33827;DHT22;20128;45.582;5.298;2023-04-03T00:59:57;10.10;91.30
33827;DHT22;20128;45.582;5.298;2023-04-03T01:02:25;10.20;91.30
33827;DHT22;20128;45.582;5.298;2023-04-03T01:04:51;10.20;91.30
33827;DHT22;20128;45.582;5.298;2023-04-03T01:07:18;10.20;91.30
33827;DHT22;20128;45.582;5.298;2023-04-03T01:09:47;10.10;91.20
33827;DHT22;20128;45.582;5.298;2023-04-03T01:12:27;10.10;91.20
33827;DHT22;20128;45.582;5.298;2023-04-03T01:14:58;10.10;91.20
33827;DHT22;20128;45.582;5.298;2023-04-03T01:17:26;10.00;91.20
33827;DHT22;20128;45.582;5.298;2023-04-03T01:25:26;10.00;91.20
33827;DHT22;20128;45.582;5.298;2023-04-03T01:27:52;10.00;91.30
33827;DHT22;20128;45.582;5.298;2023-04-03T01:30:19;10.10;91.40
33827;DHT22;20128;45.582;5.298;2023-04-03T01:32:46;10.10;91.30
33827;DHT22;20128;45.582;5.298;2023-04-03T01:35:12;10.10;91.20
33827;DHT22;20128;45.582;5.298;2023-04-03T01:37:38;10.20;91.20
33827;DHT22;20128;45.582;5.298;2023-04-03T01:40:04;10.10;91.10
33827;DHT22;20128;45.582;5.298;2023-04-03T01:42:31;10.20;91.00
33827;DHT22;20128;45.582;5.298;2023-04-03T01:44:56;10.20;90.90
33827;DHT22;20128;45.582;5.298;2023-04-03T01:47:22;10.20;90.90
33827;DHT22;20128;45.582;5.298;2023-04-03T01:49:47;10.10;90.90
33827;DHT22;20128;45.582;5.298;2023-04-03T01:52:13;10.20;90.80
33827;DHT22;20128;45.582;5.298;2023-04-03T01:54:39;10.10;90.80
33827;DHT22;20128;45.582;5.298;2023-04-03T01:57:05;10.10;90.80
33827;DHT22;20128;45.582;5.298;2023-04-03T01:59:30;10.20;90.80
33827;DHT22;20128;45.582;5.298;2023-04-03T02:01:56;10.10;90.80
33827;DHT22;20128;45.582;5.298;2023-04-03T02:04:22;10.10;90.60
33827;DHT22;20128;45.582;5.298;2023-04-03T02:06:48;10.00;90.70
33827;DHT22;20128;45.582;5.298;2023-04-03T02:09:14;10.00;90.70
33827;DHT22;20128;45.582;5.298;2023-04-03T02:11:39;10.00;90.80
33827;DHT22;20128;45.582;5.298;2023-04-03T02:14:05;10.00;90.80
33827;DHT22;20128;45.582;5.298;2023-04-03T02:16:31;10.00;90.90
33827;DHT22;20128;45.582;5.298;2023-04-03T02:18:57;9.90;91.00
33827;DHT22;20128;45.582;5.298;2023-04-03T02:21:23;9.90;91.10
33827;DHT22;20128;45.582;5.298;2023-04-03T02:23:49;10.00;91.10
33827;DHT22;20128;45.582;5.298;2023-04-03T02:26:16;10.00;91.10
33827;DHT22;20128;45.582;5.298;2023-04-03T02:28:42;10.00;91.00
33827;DHT22;20128;45.582;5.298;2023-04-03T02:31:09;10.00;91.00
33827;DHT22;20128;45.582;5.298;2023-04-03T02:33:36;10.10;90.90
33827;DHT22;20128;45.582;5.298;2023-04-03T02:36:04;10.10;90.90
33827;DHT22;20128;45.582;5.298;2023-04-03T02:38:30;10.10;91.00
33827;DHT22;20128;45.582;5.298;2023-04-03T02:41:04;10.10;90.90
33827;DHT22;20128;45.582;5.298;2023-04-03T02:43:30;10.10;91.00
33827;DHT22;20128;45.582;5.298;2023-04-03T02:45:56;10.00;90.90
33827;DHT22;20128;45.582;5.298;2023-04-03T02:48:22;10.00;91.00
33827;DHT22;20128;45.582;5.298;2023-04-03T02:50:48;9.90;91.00
33827;DHT22;20128;45.582;5.298;2023-04-03T02:53:14;10.00;91.00
33827;DHT22;20128;45.582;5.298;2023-04-03T02:55:41;10.00;91.00
33827;DHT22;20128;45.582;5.298;2023-04-03T02:58:07;9.90;91.00
33827;DHT22;20128;45.582;5.298;2023-04-03T03:00:32;9.90;91.10
33827;DHT22;20128;45.582;5.298;2023-04-03T03:02:59;10.00;91.00
33827;DHT22;20128;45.582;5.298;2023-04-03T03:05:25;10.00;91.00
33827;DHT22;20128;45.582;5.298;2023-04-03T03:07:51;10.00;90.90
33827;DHT22;20128;45.582;5.298;2023-04-03T03:10:17;10.00;90.90
33827;DHT22;20128;45.582;5.298;2023-04-03T03:12:43;10.00;90.90
33827;DHT22;20128;45.582;5.298;2023-04-03T03:15:08;10.00;90.90
33827;DHT22;20128;45.582;5.298;2023-04-03T03:17:34;10.00;91.00
33827;DHT22;20128;45.582;5.298;2023-04-03T03:20:02;10.00;91.00
33827;DHT22;20128;45.582;5.298;2023-04-03T03:22:28;10.00;91.10
33827;DHT22;20128;45.582;5.298;2023-04-03T03:24:53;10.00;91.10
33827;DHT22;20128;45.582;5.298;2023-04-03T03:27:20;10.00;91.10
33827;DHT22;20128;45.582;5.298;2023-04-03T03:29:46;10.00;91.10
33827;DHT22;20128;45.582;5.298;2023-04-03T03:32:12;10.10;91.10
33827;DHT22;20128;45.582;5.298;2023-04-03T03:34:37;10.00;91.00
33827;DHT22;20128;45.582;5.298;2023-04-03T03:37:03;10.00;91.00
33827;DHT22;20128;45.582;5.298;2023-04-03T03:39:29;10.00;91.00
33827;DHT22;20128;45.582;5.298;2023-04-03T03:41:55;10.00;91.00
33827;DHT22;20128;45.582;5.298;2023-04-03T03:44:21;10.00;91.00
33827;DHT22;20128;45.582;5.298;2023-04-03T03:46:46;10.00;91.00
33827;DHT22;20128;45.582;5.298;2023-04-03T03:49:12;10.00;91.10
33827;DHT22;20128;45.582;5.298;2023-04-03T03:51:39;10.00;91.00
33827;DHT22;20128;45.582;5.298;2023-04-03T03:54:05;9.90;91.00
33827;DHT22;20128;45.582;5.298;2023-04-03T03:56:31;9.90;91.10
33827;DHT22;20128;45.582;5.298;2023-04-03T03:58:56;9.90;91.20
33827;DHT22;20128;45.582;5.298;2023-04-03T04:01:23;9.90;91.30
33827;DHT22;20128;45.582;5.298;2023-04-03T04:03:49;9.80;91.20
33827;DHT22;20128;45.582;5.298;2023-04-03T04:06:15;9.80;91.30
33827;DHT22;20128;45.582;5.298;2023-04-03T04:08:41;9.80;91.30
33827;DHT22;20128;45.582;5.298;2023-04-03T04:11:07;9.70;91.40
33827;DHT22;20128;45.582;5.298;2023-04-03T04:13:33;9.70;91.50
33827;DHT22;20128;45.582;5.298;2023-04-03T04:15:58;9.70;91.50
33827;DHT22;20128;45.582;5.298;2023-04-03T04:18:24;9.70;91.50
33827;DHT22;20128;45.582;5.298;2023-04-03T04:20:50;9.70;91.70
33827;DHT22;20128;45.582;5.298;2023-04-03T04:23:17;9.70;91.70
33827;DHT22;20128;45.582;5.298;2023-04-03T04:25:47;9.80;91.70
33827;DHT22;20128;45.582;5.298;2023-04-03T04:28:13;9.70;91.70
33827;DHT22;20128;45.582;5.298;2023-04-03T04:30:38;9.80;91.70
33827;DHT22;20128;45.582;5.298;2023-04-03T04:33:04;9.70;91.70
33827;DHT22;20128;45.582;5.298;2023-04-03T04:35:30;9.70;91.80
33827;DHT22;20128;45.582;5.298;2023-04-03T04:37:56;9.70;91.70
33827;DHT22;20128;45.582;5.298;2023-04-03T04:40:22;9.70;91.90
33827;DHT22;20128;45.582;5.298;2023-04-03T04:42:48;9.70;91.80
33827;DHT22;20128;45.582;5.298;2023-04-03T04:45:13;9.70;91.90
33827;DHT22;20128;45.582;5.298;2023-04-03T04:47:40;9.70;91.90
33827;DHT22;20128;45.582;5.298;2023-04-03T04:50:06;9.80;91.90
33827;DHT22;20128;45.582;5.298;2023-04-03T04:52:32;9.80;91.80
33827;DHT22;20128;45.582;5.298;2023-04-03T04:54:58;9.80;91.70
33827;DHT22;20128;45.582;5.298;2023-04-03T04:57:23;9.70;91.70
33827;DHT22;20128;45.582;5.298;2023-04-03T04:59:49;9.70;91.70
33827;DHT22;20128;45.582;5.298;2023-04-03T05:02:15;9.70;91.80
33827;DHT22;20128;45.582;5.298;2023-04-03T05:04:41;9.70;91.80
33827;DHT22;20128;45.582;5.298;2023-04-03T05:07:06;9.80;91.80
33827;DHT22;20128;45.582;5.298;2023-04-03T05:09:32;9.80;91.70
33827;DHT22;20128;45.582;5.298;2023-04-03T05:11:58;9.90;91.70
33827;DHT22;20128;45.582;5.298;2023-04-03T05:14:23;9.80;91.60
33827;DHT22;20128;45.582;5.298;2023-04-03T05:16:50;9.80;91.50
33827;DHT22;20128;45.582;5.298;2023-04-03T05:19:22;9.80;91.40
33827;DHT22;20128;45.582;5.298;2023-04-03T05:21:48;9.80;91.30
33827;DHT22;20128;45.582;5.298;2023-04-03T05:24:14;9.80;91.30
33827;DHT22;20128;45.582;5.298;2023-04-03T05:26:41;9.80;91.30
33827;DHT22;20128;45.582;5.298;2023-04-03T05:29:07;9.80;91.30
33827;DHT22;20128;45.582;5.298;2023-04-03T05:31:33;9.80;91.30
33827;DHT22;20128;45.582;5.298;2023-04-03T05:33:59;9.80;91.40
33827;DHT22;20128;45.582;5.298;2023-04-03T05:36:24;9.70;91.40
33827;DHT22;20128;45.582;5.298;2023-04-03T05:38:51;9.70;91.40
33827;DHT22;20128;45.582;5.298;2023-04-03T05:41:17;9.70;91.60
33827;DHT22;20128;45.582;5.298;2023-04-03T05:43:42;9.70;91.50
33827;DHT22;20128;45.582;5.298;2023-04-03T05:46:13;9.70;91.50
33827;DHT22;20128;45.582;5.298;2023-04-03T05:48:39;9.80;91.50
33827;DHT22;20128;45.582;5.298;2023-04-03T05:51:05;9.80;91.40
33827;DHT22;20128;45.582;5.298;2023-04-03T05:53:34;9.80;91.30
33827;DHT22;20128;45.582;5.298;2023-04-03T05:56:01;9.80;91.30
33827;DHT22;20128;45.582;5.298;2023-04-03T05:58:27;9.80;91.30
33827;DHT22;20128;45.582;5.298;2023-04-03T06:00:52;9.80;91.40
33827;DHT22;20128;45.582;5.298;2023-04-03T06:03:18;9.80;91.30
33827;DHT22;20128;45.582;5.298;2023-04-03T06:05:43;9.80;91.40
33827;DHT22;20128;45.582;5.298;2023-04-03T06:08:09;9.80;91.40
33827;DHT22;20128;45.582;5.298;2023-04-03T06:10:35;9.80;91.30
33827;DHT22;20128;45.582;5.298;2023-04-03T06:13:01;9.80;91.50
33827;DHT22;20128;45.582;5.298;2023-04-03T06:15:27;9.90;91.50
33827;DHT22;20128;45.582;5.298;2023-04-03T06:17:53;9.90;91.60
33827;DHT22;20128;45.582;5.298;2023-04-03T06:20:19;9.90;91.60
33827;DHT22;20128;45.582;5.298;2023-04-03T06:22:44;9.90;91.50
33827;DHT22;20128;45.582;5.298;2023-04-03T06:25:11;9.90;91.50
33827;DHT22;20128;45.582;5.298;2023-04-03T06:27:37;9.90;91.70
33827;DHT22;20128;45.582;5.298;2023-04-03T06:30:04;9.90;91.70
33827;DHT22;20128;45.582;5.298;2023-04-03T06:32:30;9.90;91.60
33827;DHT22;20128;45.582;5.298;2023-04-03T06:34:56;9.90;91.70
33827;DHT22;20128;45.582;5.298;2023-04-03T06:37:23;9.90;91.70
33827;DHT22;20128;45.582;5.298;2023-04-03T06:39:52;9.90;91.80
33827;DHT22;20128;45.582;5.298;2023-04-03T06:42:18;9.90;91.80
33827;DHT22;20128;45.582;5.298;2023-04-03T06:44:43;9.90;91.90
33827;DHT22;20128;45.582;5.298;2023-04-03T06:47:12;10.00;91.90
33827;DHT22;20128;45.582;5.298;2023-04-03T06:49:39;10.00;92.00
33827;DHT22;20128;45.582;5.298;2023-04-03T06:52:04;10.00;92.10
33827;DHT22;20128;45.582;5.298;2023-04-03T06:54:31;10.00;92.00
33827;DHT22;20128;45.582;5.298;2023-04-03T06:56:57;10.10;92.00
33827;DHT22;20128;45.582;5.298;2023-04-03T06:59:22;10.00;92.20
33827;DHT22;20128;45.582;5.298;2023-04-03T07:01:48;10.00;92.30
33827;DHT22;20128;45.582;5.298;2023-04-03T07:04:14;10.00;92.60
33827;DHT22;20128;45.582;5.298;2023-04-03T07:06:40;10.00;92.50
33827;DHT22;20128;45.582;5.298;2023-04-03T07:09:07;10.00;92.80
33827;DHT22;20128;45.582;5.298;2023-04-03T07:11:33;10.00;92.70
33827;DHT22;20128;45.582;5.298;2023-04-03T07:13:58;10.00;92.70
33827;DHT22;20128;45.582;5.298;2023-04-03T07:16:24;10.00;92.80
33827;DHT22;20128;45.582;5.298;2023-04-03T07:18:50;10.00;92.90
33827;DHT22;20128;45.582;5.298;2023-04-03T07:21:16;10.00;92.90
33827;DHT22;20128;45.582;5.298;2023-04-03T07:23:42;10.00;93.00
33827;DHT22;20128;45.582;5.298;2023-04-03T07:26:07;10.00;93.00
33827;DHT22;20128;45.582;5.298;2023-04-03T07:28:33;10.00;93.10
33827;DHT22;20128;45.582;5.298;2023-04-03T07:31:07;10.00;93.10
33827;DHT22;20128;45.582;5.298;2023-04-03T07:33:34;10.00;93.20
33827;DHT22;20128;45.582;5.298;2023-04-03T07:36:01;10.10;93.30
33827;DHT22;20128;45.582;5.298;2023-04-03T07:38:28;10.10;93.20
33827;DHT22;20128;45.582;5.298;2023-04-03T07:40:54;10.10;93.20
33827;DHT22;20128;45.582;5.298;2023-04-03T07:43:21;10.10;93.10
33827;DHT22;20128;45.582;5.298;2023-04-03T07:45:48;10.10;93.10
33827;DHT22;20128;45.582;5.298;2023-04-03T07:48:22;10.10;93.10
33827;DHT22;20128;45.582;5.298;2023-04-03T07:50:48;10.00;93.20
33827;DHT22;20128;45.582;5.298;2023-04-03T07:53:14;10.10;93.20
33827;DHT22;20128;45.582;5.298;2023-04-03T07:55:40;10.10;93.20
33827;DHT22;20128;45.582;5.298;2023-04-03T07:58:14;10.20;93.10
33827;DHT22;20128;45.582;5.298;2023-04-03T08:00:40;10.10;93.10
33827;DHT22;20128;45.582;5.298;2023-04-03T08:03:07;10.20;93.50
33827;DHT22;20128;45.582;5.298;2023-04-03T08:05:42;10.20;93.10
33827;DHT22;20128;45.582;5.298;2023-04-03T08:08:10;10.20;93.00
33827;DHT22;20128;45.582;5.298;2023-04-03T08:10:36;10.20;93.00
33827;DHT22;20128;45.582;5.298;2023-04-03T08:13:02;10.20;92.90
33827;DHT22;20128;45.582;5.298;2023-04-03T08:15:29;10.10;92.90
33827;DHT22;20128;45.582;5.298;2023-04-03T08:17:55;10.10;92.80
33827;DHT22;20128;45.582;5.298;2023-04-03T08:20:21;10.10;92.60
33827;DHT22;20128;45.582;5.298;2023-04-03T08:22:46;10.10;92.60
33827;DHT22;20128;45.582;5.298;2023-04-03T08:25:12;10.10;92.40
33827;DHT22;20128;45.582;5.298;2023-04-03T08:27:38;10.10;92.50
33827;DHT22;20128;45.582;5.298;2023-04-03T08:30:04;10.00;92.40
33827;DHT22;20128;45.582;5.298;2023-04-03T08:32:30;10.00;92.30
33827;DHT22;20128;45.582;5.298;2023-04-03T08:34:55;10.00;92.40
33827;DHT22;20128;45.582;5.298;2023-04-03T08:37:21;10.00;92.30
33827;DHT22;20128;45.582;5.298;2023-04-03T08:39:47;10.00;92.20
33827;DHT22;20128;45.582;5.298;2023-04-03T08:44:59;10.00;92.60
33827;DHT22;20128;45.582;5.298;2023-04-03T08:48:00;10.00;92.40
33827;DHT22;20128;45.582;5.298;2023-04-03T08:50:36;10.10;92.20
33827;DHT22;20128;45.582;5.298;2023-04-03T08:53:03;10.10;92.20
33827;DHT22;20128;45.582;5.298;2023-04-03T08:55:36;10.10;92.10
33827;DHT22;20128;45.582;5.298;2023-04-03T08:58:06;10.10;92.20
33827;DHT22;20128;45.582;5.298;2023-04-03T09:03:15;10.10;91.90
33827;DHT22;20128;45.582;5.298;2023-04-03T09:11:11;10.10;91.90
33827;DHT22;20128;45.582;5.298;2023-04-03T09:13:59;10.10;91.70
33827;DHT22;20128;45.582;5.298;2023-04-03T09:16:47;10.20;91.80
33827;DHT22;20128;45.582;5.298;2023-04-03T09:21:57;10.20;91.90
33827;DHT22;20128;45.582;5.298;2023-04-03T09:24:24;10.20;91.70
33827;DHT22;20128;45.582;5.298;2023-04-03T09:26:59;10.30;91.70
33827;DHT22;20128;45.582;5.298;2023-04-03T09:29:28;10.30;91.60
33827;DHT22;20128;45.582;5.298;2023-04-03T09:32:01;10.30;91.70
33827;DHT22;20128;45.582;5.298;2023-04-03T09:34:32;10.30;91.30
33827;DHT22;20128;45.582;5.298;2023-04-03T09:37:01;10.30;91.20
33827;DHT22;20128;45.582;5.298;2023-04-03T09:39:54;10.30;91.20
33827;DHT22;20128;45.582;5.298;2023-04-03T09:42:23;10.40;91.20
33827;DHT22;20128;45.582;5.298;2023-04-03T09:45:00;10.40;91.20
33827;DHT22;20128;45.582;5.298;2023-04-03T09:47:27;10.40;91.10
33827;DHT22;20128;45.582;5.298;2023-04-03T09:52:42;10.40;91.20
33827;DHT22;20128;45.582;5.298;2023-04-03T09:57:47;10.40;90.90
33827;DHT22;20128;45.582;5.298;2023-04-03T10:00:34;10.50;91.00
33827;DHT22;20128;45.582;5.298;2023-04-03T10:03:01;10.50;91.00
33827;DHT22;20128;45.582;5.298;2023-04-03T10:05:39;10.40;90.90
33827;DHT22;20128;45.582;5.298;2023-04-03T10:10:48;10.50;90.60
33827;DHT22;20128;45.582;5.298;2023-04-03T10:13:16;10.50;90.60
33827;DHT22;20128;45.582;5.298;2023-04-03T10:19:03;10.50;90.50
33827;DHT22;20128;45.582;5.298;2023-04-03T10:24:09;10.60;90.30
33827;DHT22;20128;45.582;5.298;2023-04-03T10:26:48;10.50;90.40
33827;DHT22;20128;45.582;5.298;2023-04-03T10:34:45;10.60;91.60
33827;DHT22;20128;45.582;5.298;2023-04-03T10:37:25;10.60;91.30
33827;DHT22;20128;45.582;5.298;2023-04-03T10:40:29;10.60;90.50
33827;DHT22;20128;45.582;5.298;2023-04-03T10:46:04;10.60;90.50
33827;DHT22;20128;45.582;5.298;2023-04-03T10:51:24;10.60;91.10
33827;DHT22;20128;45.582;5.298;2023-04-03T10:54:20;10.60;90.60
33827;DHT22;20128;45.582;5.298;2023-04-03T10:56:55;10.60;90.40
33827;DHT22;20128;45.582;5.298;2023-04-03T10:59:43;10.60;90.10
33827;DHT22;20128;45.582;5.298;2023-04-03T11:02:23;10.60;90.50
33827;DHT22;20128;45.582;5.298;2023-04-03T11:04:55;10.60;90.30
33827;DHT22;20128;45.582;5.298;2023-04-03T11:07:43;10.70;90.60
33827;DHT22;20128;45.582;5.298;2023-04-03T11:10:21;10.60;90.50
33827;DHT22;20128;45.582;5.298;2023-04-03T11:12:55;10.60;90.20
33827;DHT22;20128;45.582;5.298;2023-04-03T11:15:30;10.60;89.40
33827;DHT22;20128;45.582;5.298;2023-04-03T11:18:04;10.60;89.10
33827;DHT22;20128;45.582;5.298;2023-04-03T11:20:32;10.50;89.20
33827;DHT22;20128;45.582;5.298;2023-04-03T11:23:28;10.40;89.80
33827;DHT22;20128;45.582;5.298;2023-04-03T11:25:59;10.40;90.30
33827;DHT22;20128;45.582;5.298;2023-04-03T11:28:27;10.50;89.90
33827;DHT22;20128;45.582;5.298;2023-04-03T11:34:26;10.40;89.50
33827;DHT22;20128;45.582;5.298;2023-04-03T11:36:58;10.40;89.30
33827;DHT22;20128;45.582;5.298;2023-04-03T11:39:34;10.40;89.00
33827;DHT22;20128;45.582;5.298;2023-04-03T11:44:45;10.20;88.00
33827;DHT22;20128;45.582;5.298;2023-04-03T11:47:12;10.20;88.40
33827;DHT22;20128;45.582;5.298;2023-04-03T11:50:04;10.20;89.00
33827;DHT22;20128;45.582;5.298;2023-04-03T12:16:24;10.40;87.40
33827;DHT22;20128;45.582;5.298;2023-04-03T12:21:21;10.30;87.90
33827;DHT22;20128;45.582;5.298;2023-04-03T12:29:34;10.30;87.80
33827;DHT22;20128;45.582;5.298;2023-04-03T12:37:57;10.30;86.60
33827;DHT22;20128;45.582;5.298;2023-04-03T12:48:58;10.30;88.00
33827;DHT22;20128;45.582;5.298;2023-04-03T12:54:02;10.40;87.10
33827;DHT22;20128;45.582;5.298;2023-04-03T12:56:31;10.40;86.40
33827;DHT22;20128;45.582;5.298;2023-04-03T12:59:20;10.30;86.10
33827;DHT22;20128;45.582;5.298;2023-04-03T13:01:54;10.30;87.30
33827;DHT22;20128;45.582;5.298;2023-04-03T13:04:20;10.40;87.50
33827;DHT22;20128;45.582;5.298;2023-04-03T13:06:46;10.40;87.30
33827;DHT22;20128;45.582;5.298;2023-04-03T13:09:30;10.30;87.10
33827;DHT22;20128;45.582;5.298;2023-04-03T13:12:13;10.40;88.10
33827;DHT22;20128;45.582;5.298;2023-04-03T13:14:39;10.40;88.10
33827;DHT22;20128;45.582;5.298;2023-04-03T13:17:16;10.50;88.20
33827;DHT22;20128;45.582;5.298;2023-04-03T13:19:43;10.60;85.80
33827;DHT22;20128;45.582;5.298;2023-04-03T13:24:55;10.60;86.00
33827;DHT22;20128;45.582;5.298;2023-04-03T13:27:23;10.70;86.40
33827;DHT22;20128;45.582;5.298;2023-04-03T13:29:54;10.80;86.20
33827;DHT22;20128;45.582;5.298;2023-04-03T13:32:22;10.90;85.80
33827;DHT22;20128;45.582;5.298;2023-04-03T13:34:49;10.90;85.60
33827;DHT22;20128;45.582;5.298;2023-04-03T13:39:45;11.00;85.20
33827;DHT22;20128;45.582;5.298;2023-04-03T13:42:27;11.00;85.30
33827;DHT22;20128;45.582;5.298;2023-04-03T13:47:44;11.10;85.00
33827;DHT22;20128;45.582;5.298;2023-04-03T13:50:18;11.20;84.80
33827;DHT22;20128;45.582;5.298;2023-04-03T13:53:08;11.20;84.80
33827;DHT22;20128;45.582;5.298;2023-04-03T13:55:50;11.30;84.90
33827;DHT22;20128;45.582;5.298;2023-04-03T13:58:25;11.30;84.60
33827;DHT22;20128;45.582;5.298;2023-04-03T14:03:31;11.40;83.80
33827;DHT22;20128;45.582;5.298;2023-04-03T14:05:58;11.40;83.40
33827;DHT22;20128;45.582;5.298;2023-04-03T14:08:24;11.40;83.50
33827;DHT22;20128;45.582;5.298;2023-04-03T14:10:50;11.40;83.70
33827;DHT22;20128;45.582;5.298;2023-04-03T14:13:19;11.50;84.00
33827;DHT22;20128;45.582;5.298;2023-04-03T14:15:45;11.50;83.50
33827;DHT22;20128;45.582;5.298;2023-04-03T14:18:15;11.60;83.20
33827;DHT22;20128;45.582;5.298;2023-04-03T14:20:42;11.60;82.80
33827;DHT22;20128;45.582;5.298;2023-04-03T14:23:09;11.60;82.60
33827;DHT22;20128;45.582;5.298;2023-04-03T14:25:35;11.50;82.30
33827;DHT22;20128;45.582;5.298;2023-04-03T14:28:01;11.60;82.70
33827;DHT22;20128;45.582;5.298;2023-04-03T14:30:38;11.60;83.10
33827;DHT22;20128;45.582;5.298;2023-04-03T14:33:05;11.60;83.20
33827;DHT22;20128;45.582;5.298;2023-04-03T14:35:31;11.60;82.60
33827;DHT22;20128;45.582;5.298;2023-04-03T14:37:57;11.60;82.40
33827;DHT22;20128;45.582;5.298;2023-04-03T14:40:26;11.60;82.10
33827;DHT22;20128;45.582;5.298;2023-04-03T14:42:52;11.60;81.90
33827;DHT22;20128;45.582;5.298;2023-04-03T14:45:21;11.50;82.00
33827;DHT22;20128;45.582;5.298;2023-04-03T14:47:49;11.50;81.80
33827;DHT22;20128;45.582;5.298;2023-04-03T14:50:19;11.60;81.70
33827;DHT22;20128;45.582;5.298;2023-04-03T14:52:50;11.60;82.30
33827;DHT22;20128;45.582;5.298;2023-04-03T14:55:19;11.60;81.60
33827;DHT22;20128;45.582;5.298;2023-04-03T14:57:45;11.60;81.30
33827;DHT22;20128;45.582;5.298;2023-04-03T15:00:21;11.60;81.30
33827;DHT22;20128;45.582;5.298;2023-04-03T15:02:47;11.50;81.40
33827;DHT22;20128;45.582;5.298;2023-04-03T15:05:14;11.50;81.40
33827;DHT22;20128;45.582;5.298;2023-04-03T15:07:48;11.40;81.00
33827;DHT22;20128;45.582;5.298;2023-04-03T15:12:41;11.30;80.90
33827;DHT22;20128;45.582;5.298;2023-04-03T15:15:07;11.30;80.90
33827;DHT22;20128;45.582;5.298;2023-04-03T15:17:34;11.30;81.00
33827;DHT22;20128;45.582;5.298;2023-04-03T15:20:00;11.30;81.50
33827;DHT22;20128;45.582;5.298;2023-04-03T15:22:26;11.30;81.90
33827;DHT22;20128;45.582;5.298;2023-04-03T15:24:51;11.30;81.50
33827;DHT22;20128;45.582;5.298;2023-04-03T15:27:17;11.30;81.50
33827;DHT22;20128;45.582;5.298;2023-04-03T15:29:44;11.30;80.90
33827;DHT22;20128;45.582;5.298;2023-04-03T15:32:10;11.30;80.70
33827;DHT22;20128;45.582;5.298;2023-04-03T15:34:36;11.30;80.30
33827;DHT22;20128;45.582;5.298;2023-04-03T15:37:02;11.30;80.70
33827;DHT22;20128;45.582;5.298;2023-04-03T15:39:28;11.30;80.80
33827;DHT22;20128;45.582;5.298;2023-04-03T15:41:54;11.30;81.10
33827;DHT22;20128;45.582;5.298;2023-04-03T15:44:20;11.30;80.70
33827;DHT22;20128;45.582;5.298;2023-04-03T15:46:47;11.30;80.60
33827;DHT22;20128;45.582;5.298;2023-04-03T15:49:14;11.40;80.10
33827;DHT22;20128;45.582;5.298;2023-04-03T15:51:40;11.30;80.10
33827;DHT22;20128;45.582;5.298;2023-04-03T15:54:06;11.30;79.60
33827;DHT22;20128;45.582;5.298;2023-04-03T15:56:32;11.30;79.80
33827;DHT22;20128;45.582;5.298;2023-04-03T15:58:57;11.30;79.40
33827;DHT22;20128;45.582;5.298;2023-04-03T16:01:23;11.40;78.90
33827;DHT22;20128;45.582;5.298;2023-04-03T16:03:49;11.40;78.70
33827;DHT22;20128;45.582;5.298;2023-04-03T16:06:15;11.30;77.90
33827;DHT22;20128;45.582;5.298;2023-04-03T16:08:42;11.30;78.30
33827;DHT22;20128;45.582;5.298;2023-04-03T16:11:08;11.40;78.50
33827;DHT22;20128;45.582;5.298;2023-04-03T16:13:34;11.30;78.40
33827;DHT22;20128;45.582;5.298;2023-04-03T16:16:00;11.30;77.70
33827;DHT22;20128;45.582;5.298;2023-04-03T16:18:27;11.30;77.00
33827;DHT22;20128;45.582;5.298;2023-04-03T16:20:54;11.30;77.20
33827;DHT22;20128;45.582;5.298;2023-04-03T16:23:20;11.30;77.40
33827;DHT22;20128;45.582;5.298;2023-04-03T16:25:46;11.30;77.70
33827;DHT22;20128;45.582;5.298;2023-04-03T16:28:16;11.30;76.70
33827;DHT22;20128;45.582;5.298;2023-04-03T16:30:46;11.20;76.30
33827;DHT22;20128;45.582;5.298;2023-04-03T16:33:13;11.30;75.90
33827;DHT22;20128;45.582;5.298;2023-04-03T16:35:38;11.30;75.50
33827;DHT22;20128;45.582;5.298;2023-04-03T16:38:04;11.30;75.90
33827;DHT22;20128;45.582;5.298;2023-04-03T16:40:30;11.30;75.60
33827;DHT22;20128;45.582;5.298;2023-04-03T16:42:56;11.30;75.90
33827;DHT22;20128;45.582;5.298;2023-04-03T16:45:21;11.30;75.60
33827;DHT22;20128;45.582;5.298;2023-04-03T16:47:47;11.30;75.50
33827;DHT22;20128;45.582;5.298;2023-04-03T16:50:13;11.30;74.70
33827;DHT22;20128;45.582;5.298;2023-04-03T16:52:39;11.30;74.60
33827;DHT22;20128;45.582;5.298;2023-04-03T16:55:05;11.30;72.50
33827;DHT22;20128;45.582;5.298;2023-04-03T16:57:31;11.20;73.00
33827;DHT22;20128;45.582;5.298;2023-04-03T16:59:56;11.20;71.40
33827;DHT22;20128;45.582;5.298;2023-04-03T17:02:23;11.10;71.40
33827;DHT22;20128;45.582;5.298;2023-04-03T17:04:50;11.10;71.00
33827;DHT22;20128;45.582;5.298;2023-04-03T17:07:18;11.10;70.40
33827;DHT22;20128;45.582;5.298;2023-04-03T17:09:43;11.10;69.70
33827;DHT22;20128;45.582;5.298;2023-04-03T17:12:09;11.00;70.50
33827;DHT22;20128;45.582;5.298;2023-04-03T17:14:35;11.10;70.90
33827;DHT22;20128;45.582;5.298;2023-04-03T17:17:02;11.10;68.20
33827;DHT22;20128;45.582;5.298;2023-04-03T17:19:28;11.10;67.20
33827;DHT22;20128;45.582;5.298;2023-04-03T17:21:53;11.00;67.70
33827;DHT22;20128;45.582;5.298;2023-04-03T17:24:20;11.00;67.30
33827;DHT22;20128;45.582;5.298;2023-04-03T17:26:46;11.00;67.90
33827;DHT22;20128;45.582;5.298;2023-04-03T17:29:11;11.00;67.70
33827;DHT22;20128;45.582;5.298;2023-04-03T17:31:37;11.00;68.00
33827;DHT22;20128;45.582;5.298;2023-04-03T17:34:03;10.90;67.30
33827;DHT22;20128;45.582;5.298;2023-04-03T17:36:30;11.00;68.00